Time;durP1;ratioP1;P1;durP2;ratioP2;P2;SDS_P1;SDS_P2;PMS_P1;PMS_P2;Temp;Humidity;BMP_temperature;BMP_pressure;BME280_temperature;BME280_humidity;BME280_pressure;Samples;Min_cycle;Max_cycle;Signal;HPM_P1;HPM_P2
2022/08/11 00:02:40;;;;;;;3.05;2.52;;;;;;;15.99;67.63;97290.30;1676720;85;21011;-83
2022/08/11 00:05:10;;;;;;;3.80;2.22;;;;;;;15.94;67.70;97288.23;1676829;85;20996;-82
2022/08/11 00:07:47;;;;;;;4.50;2.27;;;;;;;15.89;67.86;97289.32;1677483;85;21023;-82
2022/08/11 00:10:24;;;;;;;2.72;2.20;;;;;;;15.83;68.08;97290.91;1676459;85;21402;-82
2022/08/11 00:12:57;;;;;;;2.72;1.70;;;;;;;15.75;68.16;97289.73;1658427;85;21059;-83
2022/08/11 00:15:24;;;;;;;3.83;2.15;;;;;;;15.68;68.24;97289.40;1678639;85;21012;-83
2022/08/11 00:17:53;;;;;;;2.72;1.92;;;;;;;15.61;68.56;97291.95;1676448;85;20992;-82
2022/08/11 00:20:19;;;;;;;3.67;1.80;;;;;;;15.54;68.89;97286.65;1677394;85;21048;-82
2022/08/11 00:22:45;;;;;;;2.75;1.95;;;;;;;15.50;68.99;97290.66;1676544;85;20996;-82
2022/08/11 00:25:19;;;;;;;3.85;1.90;;;;;;;15.48;69.54;97287.42;1676533;85;21358;-82
2022/08/11 00:27:45;;;;;;;2.83;2.47;;;;;;;15.47;69.82;97285.00;1676752;85;21008;-82
2022/08/11 00:30:12;;;;;;;2.30;1.70;;;;;;;15.43;70.05;97285.85;1649686;85;20999;-82
2022/08/11 00:32:42;;;;;;;2.20;1.72;;;;;;;15.39;70.26;97282.50;1675277;84;21016;-82
2022/08/11 00:35:13;;;;;;;4.10;1.98;;;;;;;15.35;70.61;97282.08;1645547;86;21016;-82
2022/08/11 00:37:39;;;;;;;3.33;1.90;;;;;;;15.29;70.61;97278.42;1657744;85;21352;-82
2022/08/11 00:40:08;;;;;;;2.75;1.70;;;;;;;15.25;70.86;97285.01;1638222;86;20953;-82
2022/08/11 00:42:59;;;;;;;5.37;1.80;;;;;;;15.23;70.53;97288.82;1605251;87;21885;-82
2022/08/11 00:45:55;;;;;;;3.02;1.90;;;;;;;15.21;70.73;97283.77;1641957;87;21418;-83
2022/08/11 00:48:31;;;;;;;2.33;1.70;;;;;;;15.20;70.74;97286.58;1622678;87;21096;-82
2022/08/11 00:51:25;;;;;;;3.15;1.92;;;;;;;15.15;70.58;97282.42;1643067;87;21494;-82
2022/08/11 00:54:22;;;;;;;2.47;1.55;;;;;;;15.10;70.83;97279.53;1642091;87;20996;-82
2022/08/11 00:57:31;;;;;;;2.20;1.77;;;;;;;15.03;70.98;97274.75;1644887;87;20998;-82
2022/08/11 01:00:14;;;;;;;3.05;1.75;;;;;;;14.99;71.00;97275.14;1634483;87;20954;-82
2022/08/11 01:03:16;;;;;;;;;;;;;;;14.95;70.92;97273.87;1653353;87;21398;-82
2022/08/11 01:06:12;;;;;;;2.12;1.52;;;;;;;14.92;71.15;97274.25;1641592;87;20099;-82
2022/08/11 01:08:52;;;;;;;2.70;2.00;;;;;;;14.91;71.70;97270.02;1633813;87;21370;-82
2022/08/11 01:11:38;;;;;;;2.85;1.92;;;;;;;14.89;71.53;97268.59;1649599;87;21027;-82
2022/08/11 01:15:00;;;;;;;3.52;1.82;;;;;;;14.84;71.72;97269.16;1640149;87;21031;-83
2022/08/11 01:17:59;;;;;;;2.65;2.00;;;;;;;14.80;72.09;97270.50;1653806;86;20988;-82
2022/08/11 01:21:09;;;;;;;3.02;1.98;;;;;;;14.75;72.36;97274.18;1650341;86;21048;-82
2022/08/11 01:24:11;;;;;;;2.17;1.60;;;;;;;14.71;72.23;97269.83;1644274;87;21027;-83
2022/08/11 01:27:12;;;;;;;;;;;;;;;14.70;72.51;97272.13;1632162;87;20970;-82
2022/08/11 01:30:18;;;;;;;2.58;1.80;;;;;;;14.66;72.40;97266.16;1640668;87;20100;-83
2022/08/11 01:32:49;;;;;;;3.27;2.02;;;;;;;14.59;72.46;97262.14;1630997;85;21095;-83
2022/08/11 01:35:27;;;;;;;4.10;2.10;;;;;;;14.55;72.85;97274.48;1675968;84;21023;-83
2022/08/11 01:38:34;;;;;;;3.20;1.77;;;;;;;14.51;73.12;97269.31;1693721;84;21433;-82
2022/08/11 01:45:00;;;;;;;3.60;1.52;;;;;;;14.44;73.22;97261.38;1663530;85;21067;-82
2022/08/11 01:47:49;;;;;;;5.75;2.40;;;;;;;14.43;73.48;97258.42;1690426;84;21024;-82
2022/08/11 01:50:45;;;;;;;3.92;1.77;;;;;;;14.43;73.67;97255.80;1665283;85;21079;-83
2022/08/11 01:53:39;;;;;;;3.42;1.92;;;;;;;14.41;73.74;97246.84;1658390;85;20988;-82
2022/08/11 01:56:28;;;;;;;3.30;1.72;;;;;;;14.38;73.72;97249.02;1696012;84;21107;-82
2022/08/11 01:59:12;;;;;;;4.05;2.02;;;;;;;14.34;73.83;97249.08;1666836;84;21007;-82
2022/08/11 02:01:58;;;;;;;2.90;1.60;;;;;;;14.30;73.79;97252.53;1677815;84;21068;-82
2022/08/11 02:04:42;;;;;;;2.67;1.80;;;;;;;14.27;73.81;97255.52;1669959;84;21027;-82
2022/08/11 02:07:16;;;;;;;4.15;2.17;;;;;;;14.28;73.85;97248.48;1672542;84;21429;-82
2022/08/11 02:12:59;;;;;;;3.20;1.70;;;;;;;14.26;73.97;97243.94;1675399;85;20999;-82
2022/08/11 02:15:44;;;;;;;4.62;2.40;;;;;;;14.22;74.05;97242.20;1661011;85;21028;-82
2022/08/11 02:18:20;;;;;;;4.55;2.22;;;;;;;14.17;74.19;97241.95;1675232;84;21047;-82
2022/08/11 02:23:59;;;;;;;4.60;2.10;;;;;;;14.12;74.10;97245.09;1677718;84;21056;-82
2022/08/11 02:26:45;;;;;;;;;;;;;;;14.11;74.23;97242.66;1681064;84;21052;-83
2022/08/11 02:29:33;;;;;;;2.58;1.80;;;;;;;14.10;74.33;97237.13;1681467;84;20147;-81
2022/08/11 02:35:27;;;;;;;3.95;1.98;;;;;;;14.04;74.38;97246.52;1677137;84;21449;-82
2022/08/11 02:38:17;;;;;;;3.33;2.40;;;;;;;14.00;74.55;97245.77;1675210;85;21386;-81
2022/08/11 02:40:58;;;;;;;4.70;1.95;;;;;;;13.97;74.82;97255.24;1667508;85;21296;-82
2022/08/11 02:43:37;;;;;;;4.30;1.95;;;;;;;13.94;75.06;97245.97;1670230;84;21013;-82
2022/08/11 02:46:25;;;;;;;4.83;2.08;;;;;;;13.94;75.04;97249.89;1651396;85;20980;-82
2022/08/11 02:52:08;;;;;;;4.70;2.70;;;;;;;13.93;75.23;97252.19;1683753;84;21014;-82
2022/08/11 02:55:16;;;;;;;2.52;2.22;;;;;;;13.86;75.28;97251.30;1687602;84;21101;-82
2022/08/11 02:58:11;;;;;;;3.12;2.00;;;;;;;13.82;75.66;97248.22;1651100;85;20996;-82
2022/08/11 03:01:06;;;;;;;2.30;1.72;;;;;;;13.79;75.41;97258.23;1669842;84;21374;-82
2022/08/11 03:04:01;;;;;;;4.12;2.20;;;;;;;13.76;75.55;97257.28;1667960;84;20954;-83
2022/08/11 03:06:36;;;;;;;2.85;2.30;;;;;;;;;;1671225;84;21039;-82
2022/08/11 03:09:20;;;;;;;3.83;2.10;;;;;;;13.77;75.49;97258.91;1678662;84;21029;-82
2022/08/11 03:18:25;;;;;;;3.17;1.90;;;;;;;13.69;75.67;97257.20;1667125;85;21028;-82
2022/08/11 03:21:22;;;;;;;2.72;1.82;;;;;;;13.65;75.60;97262.45;1681258;84;21086;-82
2022/08/11 03:24:10;;;;;;;4.15;2.08;;;;;;;13.65;75.62;97262.45;1683774;84;20960;-82
2022/08/11 03:27:06;;;;;;;2.47;1.95;;;;;;;13.66;75.72;97267.17;1662673;84;21315;-83
2022/08/11 03:29:43;;;;;;;5.25;2.30;;;;;;;13.63;75.70;97264.92;1682891;84;21007;-82
2022/08/11 03:34:01;;;;;;;3.08;2.17;;;;;;;13.60;75.96;97264.80;1683819;85;21070;-82
2022/08/11 03:35:19;;;;;;;3.58;2.10;;;;;;;13.58;76.10;97262.05;1646476;83;21003;-82
2022/08/11 03:37:55;;;;;;;3.98;2.40;;;;;;;13.53;76.20;97265.20;1647331;86;21052;-82
2022/08/11 03:43:54;;;;;;;2.72;2.17;;;;;;;13.48;76.22;97260.99;1624574;87;21038;-82
2022/08/11 03:46:26;;;;;;;4.20;2.33;;;;;;;13.48;76.40;97258.38;1628243;86;20985;-82
2022/08/11 03:49:14;;;;;;;3.22;2.25;;;;;;;13.48;76.33;97258.38;1623959;87;21057;-82
2022/08/11 03:52:17;;;;;;;3.20;2.50;;;;;;;13.47;76.39;97256.77;1627574;86;21386;-82
2022/08/11 03:55:21;;;;;;;2.60;2.10;;;;;;;13.46;76.74;97253.84;1643497;86;21072;-82
2022/08/11 03:57:58;;;;;;;2.37;1.72;;;;;;;13.42;76.96;97252.58;1636308;87;21065;-82
2022/08/11 04:01:09;;;;;;;3.20;2.12;;;;;;;13.40;77.16;97249.34;1668997;85;21091;-82
2022/08/11 04:04:29;;;;;;;4.08;2.40;;;;;;;13.39;77.23;97252.45;1662151;85;20976;-82
2022/08/11 04:07:36;;;;;;;3.17;2.08;;;;;;;13.42;77.46;97253.89;1700763;84;20954;-82
2022/08/11 04:10:41;;;;;;;4.03;2.22;;;;;;;13.45;77.66;97253.03;1648236;85;21390;-82
2022/08/11 04:13:47;;;;;;;3.25;2.27;;;;;;;13.47;77.69;97252.35;1650632;84;21122;-82
2022/08/11 04:16:46;;;;;;;4.35;2.52;;;;;;;13.47;77.84;97255.45;1636795;86;21045;-82
2022/08/11 04:19:55;;;;;;;4.22;1.92;;;;;;;13.45;77.81;97256.13;1647017;84;21382;-82
2022/08/11 04:22:39;;;;;;;2.95;2.10;;;;;;;13.46;78.11;97253.34;1650401;87;21075;-82
2022/08/11 04:25:19;;;;;;;3.02;1.67;;;;;;;13.49;78.09;97258.70;1633308;86;21023;-82
2022/08/11 04:28:09;;;;;;;3.45;2.20;;;;;;;13.50;78.06;97257.24;1633424;86;20984;-82
2022/08/11 04:30:43;;;;;;;2.98;2.27;;;;;;;13.51;78.13;97256.75;1638143;87;20978;-82
2022/08/11 04:33:23;;;;;;;4.70;2.30;;;;;;;13.51;78.37;97253.64;1617270;86;21122;-82
2022/08/11 04:37:31;;;;;;;3.35;2.15;;;;;;;13.51;78.53;97247.61;1625255;87;21047;-82
2022/08/11 04:39:43;;;;;;;3.27;1.90;;;;;;;13.51;78.82;97254.95;1684030;84;21428;-82
2022/08/11 04:45:35;;;;;;;4.08;2.75;;;;;;;13.56;79.07;97250.48;1662312;84;21002;-82
2022/08/11 05:07:41;;;;;;;4.08;2.22;;;;;;;13.79;80.02;97255.61;1641574;86;21004;-82
2022/08/11 05:10:32;;;;;;;4.33;2.37;;;;;;;13.84;80.14;97250.68;1646658;85;21011;-81
2022/08/11 05:36:17;;;;;;;4.30;2.25;;;;;;;14.25;81.59;97252.28;1606949;88;21058;-83
2022/08/11 05:58:07;;;;;;;2.47;1.98;;;;;;;14.68;82.71;97261.05;1641485;84;21429;-81
2022/08/11 06:00:45;;;;;;;4.12;2.05;;;;;;;14.77;82.67;97269.56;1631680;87;21044;-81
2022/08/11 06:03:13;;;;;;;4.67;2.90;;;;;;;14.82;82.75;97271.65;1611151;88;21327;-81
2022/08/11 06:05:40;;;;;;;3.98;2.40;;;;;;;14.88;82.92;97270.89;1641454;86;21395;-81
2022/08/11 06:08:07;;;;;;;3.87;2.55;;;;;;;14.96;83.27;97268.13;1645983;86;20987;-81
2022/08/11 06:10:35;;;;;;;4.70;2.80;;;;;;;15.02;82.92;97279.18;1640722;85;20976;-81
2022/08/11 06:13:03;;;;;;;4.40;3.05;;;;;;;15.10;82.63;97270.38;1671504;85;20980;-81
2022/08/11 06:15:33;;;;;;;3.17;2.47;;;;;;;15.19;82.10;97277.92;1669660;85;21016;-81
2022/08/11 06:18:00;;;;;;;4.28;2.75;;;;;;;15.31;82.08;97276.92;1665733;85;21483;-81
2022/08/11 06:20:26;;;;;;;5.87;3.08;;;;;;;15.44;82.20;97278.30;1676708;84;21000;-80
2022/08/11 06:23:02;;;;;;;3.75;2.58;;;;;;;15.54;82.08;97282.72;1675530;85;21032;-81
2022/08/11 06:25:35;;;;;;;4.65;2.80;;;;;;;15.62;82.21;97287.05;1676270;84;21351;-81
2022/08/11 06:28:05;;;;;;;4.20;2.70;;;;;;;15.66;82.25;97278.30;1669517;84;21022;-81
2022/08/11 06:30:40;;;;;;;3.95;2.40;;;;;;;15.76;82.37;97280.06;1662305;85;21450;-82
2022/08/11 06:33:16;;;;;;;4.50;3.08;;;;;;;15.82;80.87;97284.05;1656714;85;21373;-81
2022/08/11 06:36:11;;;;;;;7.60;3.15;;;;;;;15.94;80.46;97284.30;1655191;84;21027;-81
2022/08/11 06:38:54;;;;;;;5.12;3.00;;;;;;;16.06;79.98;97288.00;1663140;85;20988;-82
2022/08/11 06:41:48;;;;;;;4.45;2.70;;;;;;;16.18;80.30;97283.84;1620540;87;21558;-81
2022/08/11 06:44:21;;;;;;;5.85;2.90;;;;;;;16.28;80.21;97281.37;1620248;87;21713;-82
2022/08/11 06:46:52;;;;;;;3.98;3.33;;;;;;;16.33;79.63;97285.01;1614224;88;21158;-81
2022/08/11 06:52:12;;;;;;;4.92;2.77;;;;;;;16.58;78.16;97279.23;1676285;84;21042;-81
2022/08/11 06:54:40;;;;;;;;;;;;;;;16.71;77.65;97279.30;1671612;85;21327;-81
2022/08/11 07:02:42;;;;;;;3.12;2.70;;;;;;;17.00;76.90;97273.70;1671295;85;21064;-81
2022/08/11 07:05:23;;;;;;;3.80;2.60;;;;;;;17.12;76.20;97275.75;1674573;84;20969;-81
2022/08/11 07:17:07;;;;;;;4.85;2.70;;;;;;;17.47;74.70;97277.67;1675017;84;21136;-81
2022/08/11 07:30:40;;;;;;;5.05;2.58;;;;;;;17.83;73.25;97276.73;1660374;84;21347;-81
2022/08/11 07:33:06;;;;;;;3.52;1.95;;;;;;;17.91;74.27;97275.72;1669685;84;20991;-81
2022/08/11 07:35:38;;;;;;;4.10;2.20;;;;;;;17.93;73.48;97277.12;1667970;84;21379;-81
2022/08/11 07:38:10;;;;;;;5.42;2.15;;;;;;;17.94;71.49;97278.73;1666595;85;21402;-81
2022/08/11 07:40:36;;;;;;;3.45;2.65;;;;;;;18.00;70.92;97283.16;1661229;85;20971;-82
2022/08/11 07:43:02;;;;;;;4.83;2.20;;;;;;;18.11;72.09;97288.81;1663440;85;21343;-81
2022/08/11 07:53:42;;;;;;;2.33;1.92;;;;;;;18.42;69.16;97277.56;1662181;85;21089;-82
2022/08/11 07:56:08;;;;;;;4.03;2.30;;;;;;;18.47;69.39;97281.69;1658998;85;21082;-81
2022/08/11 08:18:00;;;;;;;3.40;2.00;;;;;;;18.74;69.71;97271.87;1663267;85;20996;-82
2022/08/11 08:20:36;;;;;;;2.45;1.80;;;;;;;18.72;69.69;97276.55;1591769;88;21073;-82
2022/08/11 08:23:03;;;;;;;4.60;2.27;;;;;;;18.69;69.81;97279.58;1658452;85;21314;-82
2022/08/11 08:25:32;;;;;;;4.67;2.83;;;;;;;18.71;69.58;97273.58;1676421;84;21034;-81
2022/08/11 08:27:59;;;;;;;2.70;2.20;;;;;;;18.80;68.28;97274.96;1667077;85;21020;-82
2022/08/11 08:33:13;;;;;;;3.80;2.50;;;;;;;19.00;68.18;97274.83;1667841;85;22032;-81
2022/08/11 08:35:40;;;;;;;4.72;2.33;;;;;;;19.10;67.65;97276.50;1670817;84;21020;-81
2022/08/11 08:38:06;;;;;;;3.27;2.22;;;;;;;19.23;68.06;97267.69;1664002;85;21091;-81
2022/08/11 08:40:32;;;;;;;3.50;2.08;;;;;;;19.37;67.73;97273.16;1653988;85;21378;-80
2022/08/11 08:43:09;;;;;;;3.90;2.10;;;;;;;19.55;66.83;97274.55;1665666;85;20968;-81
2022/08/11 08:45:35;;;;;;;4.25;2.70;;;;;;;19.68;66.79;97270.45;1661880;85;21437;-81
2022/08/11 08:48:06;;;;;;;3.75;2.20;;;;;;;19.91;67.89;97263.75;1657473;85;21010;-81
2022/08/11 08:53:28;;;;;;;3.15;1.92;;;;;;;20.21;66.76;97267.78;1662084;85;21304;-81
2022/08/11 08:55:55;;;;;;;3.00;2.00;;;;;;;20.19;65.39;97265.37;1665429;84;21063;-81
2022/08/11 08:58:20;;;;;;;2.95;2.20;;;;;;;20.21;64.37;97258.03;1667022;84;21951;-81
2022/08/11 09:00:46;;;;;;;4.25;1.90;;;;;;;20.05;66.15;97271.30;1666589;85;21031;-81
2022/08/11 09:03:12;;;;;;;3.72;1.85;;;;;;;19.96;65.55;97271.80;1666244;85;20976;-81
2022/08/11 09:05:39;;;;;;;3.25;1.70;;;;;;;19.98;64.51;97269.23;1665536;85;21098;-81
2022/08/11 09:08:06;;;;;;;5.47;1.70;;;;;;;20.05;63.83;97268.66;1666814;85;20937;-81
2022/08/11 09:10:32;;;;;;;3.10;1.60;;;;;;;20.11;64.19;97268.80;1666267;85;21026;-81
2022/08/11 09:12:58;;;;;;;2.62;2.05;;;;;;;20.13;61.58;97274.15;1667493;85;21363;-81
2022/08/11 09:15:24;;;;;;;2.90;1.72;;;;;;;20.11;63.69;97271.44;1665207;85;21039;-81
2022/08/11 09:18:02;;;;;;;3.12;1.60;;;;;;;20.13;63.01;97261.47;1655517;85;21122;-81
2022/08/11 09:20:28;;;;;;;2.40;1.90;;;;;;;20.25;63.92;97265.80;1657555;85;21363;-81
2022/08/11 09:28:28;;;;;;;3.45;1.75;;;;;;;20.57;62.55;97242.67;1663385;85;21028;-81
2022/08/11 09:30:54;;;;;;;2.52;1.87;;;;;;;20.70;61.20;97240.89;1657597;85;20976;-82
2022/08/11 09:33:21;;;;;;;2.75;1.90;;;;;;;20.79;62.98;97247.45;1671190;85;20991;-82
2022/08/11 09:35:48;;;;;;;3.35;1.80;;;;;;;20.87;62.62;97245.30;1667964;84;21462;-81
2022/08/11 09:41:04;;;;;;;3.60;1.67;;;;;;;21.08;61.67;97245.28;1673616;84;21492;-81
2022/08/11 09:46:14;;;;;;;3.15;1.95;;;;;;;21.05;61.03;97245.75;1672489;84;21446;-81
2022/08/11 09:48:43;;;;;;;2.72;2.00;;;;;;;21.12;60.94;97241.15;1677382;84;20940;-81
2022/08/11 09:51:09;;;;;;;4.35;1.85;;;;;;;21.09;61.48;97239.48;1675571;84;20968;-81
2022/08/11 09:53:38;;;;;;;2.42;1.67;;;;;;;21.09;61.33;97235.00;1679200;84;21353;-81
2022/08/11 09:58:36;;;;;;;1.87;1.67;;;;;;;21.23;60.26;97232.95;1605450;84;20963;-81
2022/08/11 10:01:02;;;;;;;4.62;1.62;;;;;;;21.33;59.19;97223.98;1675036;84;21022;-81
2022/08/11 10:03:28;;;;;;;2.30;1.55;;;;;;;21.47;58.77;97220.05;1676803;84;20953;-81
2022/08/11 10:08:43;;;;;;;2.65;1.70;;;;;;;21.70;58.33;97221.90;1679974;84;21360;-81
2022/08/11 10:11:14;;;;;;;3.17;1.72;;;;;;;21.80;56.49;97220.80;1675090;84;20995;-82
2022/08/11 10:16:33;;;;;;;3.22;1.90;;;;;;;22.03;58.68;97220.47;1665547;85;21460;-81
2022/08/11 10:18:59;;;;;;;1.95;1.70;;;;;;;22.11;58.06;97221.44;1665842;85;21011;-82
2022/08/11 10:21:43;;;;;;;3.85;1.92;;;;;;;22.03;56.47;97213.33;1667153;85;21541;-91
2022/08/11 10:26:54;;;;;;;3.40;1.95;;;;;;;22.27;56.48;97207.98;1683839;84;21460;-83
2022/08/11 10:35:01;;;;;;;3.83;1.87;;;;;;;22.73;56.34;97205.13;1678768;84;21491;-83
2022/08/11 10:37:29;;;;;;;5.10;2.15;;;;;;;22.83;55.75;97208.52;1679599;85;21106;-83
2022/08/11 10:39:55;;;;;;;3.87;2.08;;;;;;;22.78;55.25;97199.14;1609830;85;21510;-83
2022/08/11 10:47:33;;;;;;;5.42;2.37;;;;;;;22.61;55.47;97198.28;1677524;85;21029;-83
2022/08/11 10:47:33;;;;;;;4.72;2.10;;;;;;;22.48;54.56;97206.02;1609979;85;21046;-83
2022/08/11 11:01:05;;;;;;;2.50;1.57;;;;;;;22.07;56.12;97195.97;1674846;85;21485;-83
2022/08/11 11:03:33;;;;;;;2.90;1.77;;;;;;;22.01;55.32;97196.08;1673678;85;21000;-83
2022/08/11 11:06:24;;;;;;;3.80;2.15;;;;;;;21.92;57.07;97192.98;1679061;84;21063;-83
2022/08/11 11:08:52;;;;;;;5.22;2.22;;;;;;;21.94;57.92;97194.07;1673701;84;21054;-83
2022/08/11 11:11:19;;;;;;;;;;;;;;;21.93;59.32;97185.33;1677191;85;21370;-83
2022/08/11 11:19:23;;;;;;;3.05;2.30;;;;;;;21.97;56.25;97187.02;1675327;85;21003;-83
2022/08/11 11:21:53;;;;;;;3.02;1.82;;;;;;;21.98;57.18;97183.33;1678248;85;21392;-82
2022/08/11 11:24:45;;;;;;;2.83;2.02;;;;;;;22.11;55.67;97181.22;1670869;85;21013;-82
2022/08/11 11:27:40;;;;;;;3.77;1.75;;;;;;;22.18;55.57;97176.33;1683655;85;20980;-82
2022/08/11 11:30:09;;;;;;;4.22;2.12;;;;;;;22.40;56.23;97172.77;1679205;85;20986;-82
2022/08/11 11:32:53;;;;;;;3.10;1.87;;;;;;;22.61;55.82;97164.65;1679356;84;20993;-83
2022/08/11 11:35:51;;;;;;;2.90;1.77;;;;;;;22.62;54.99;97161.51;1680926;84;21297;-82
2022/08/11 11:38:17;;;;;;;3.52;1.70;;;;;;;22.54;54.94;97162.69;1680923;84;20976;-83
2022/08/11 11:40:43;;;;;;;2.72;1.77;;;;;;;22.42;54.82;97161.41;1619518;87;20963;-84
2022/08/11 11:43:09;;;;;;;2.70;1.60;;;;;;;22.46;54.17;97154.62;1624112;87;21419;-83
2022/08/11 11:45:34;;;;;;;2.58;1.87;;;;;;;22.61;54.56;97150.60;1630040;87;21032;-83
2022/08/11 11:48:01;;;;;;;2.90;1.72;;;;;;;22.82;54.43;97155.25;1630159;87;21080;-83
2022/08/11 11:50:33;;;;;;;2.50;1.77;;;;;;;22.77;53.63;97155.11;1636294;87;21038;-82
2022/08/11 11:53:01;;;;;;;2.20;1.62;;;;;;;22.77;53.23;97147.16;1621952;87;21140;-83
2022/08/11 11:55:26;;;;;;;4.62;2.02;;;;;;;22.72;50.60;97139.95;1625224;87;21016;-82
2022/08/11 12:03:22;;;;;;;2.37;1.42;;;;;;;22.58;54.75;97137.32;1630015;87;21132;-83
2022/08/11 12:05:47;;;;;;;3.12;1.57;;;;;;;22.60;55.25;97131.78;1617923;87;21380;-83
2022/08/11 12:08:14;;;;;;;4.40;1.65;;;;;;;22.75;53.49;97139.45;1628932;87;21316;-83
2022/08/11 12:13:43;;;;;;;2.05;1.22;;;;;;;23.00;52.96;97123.20;1629762;87;21099;-83
2022/08/11 12:16:13;;;;;;;2.42;1.35;;;;;;;23.21;53.50;97125.61;1679463;84;21339;-84
2022/08/11 12:18:41;;;;;;;2.37;1.52;;;;;;;23.45;53.67;97121.44;1676005;84;21060;-83
2022/08/11 12:21:07;;;;;;;2.37;1.32;;;;;;;23.53;48.91;97118.34;1678697;84;21063;-82
2022/08/11 12:29:04;;;;;;;2.35;1.35;;;;;;;23.50;51.08;97126.28;1683075;84;21371;-83
2022/08/11 12:31:31;;;;;;;3.02;1.30;;;;;;;23.38;50.90;97124.25;1664215;85;20979;-82
2022/08/11 12:34:10;;;;;;;3.65;1.50;;;;;;;23.31;49.98;97115.16;1657154;85;21027;-83
2022/08/11 12:36:38;;;;;;;2.40;1.47;;;;;;;23.18;49.92;97112.85;1657539;85;21063;-83
2022/08/11 12:39:08;;;;;;;2.67;1.40;;;;;;;23.28;50.02;97103.72;1665020;86;21096;-83
2022/08/11 12:47:04;;;;;;;1.95;1.20;;;;;;;23.25;52.72;97100.73;1682559;84;21059;-83
2022/08/11 12:52:20;;;;;;;1.98;1.30;;;;;;;23.51;53.14;97093.40;1660782;86;21491;-83
2022/08/11 12:54:58;;;;;;;1.85;1.20;;;;;;;23.64;52.97;97083.78;1667699;86;21037;-83
2022/08/11 13:05:58;;;;;;;1.30;1.00;;;;;;;23.97;48.97;97069.27;1683129;84;21371;-83
2022/08/11 13:08:25;;;;;;;1.82;1.20;;;;;;;23.99;47.30;97074.60;1682538;84;20987;-84
2022/08/11 13:13:38;;;;;;;1.55;1.05;;;;;;;23.58;48.51;97064.05;1682136;84;21059;-84
2022/08/11 13:16:04;;;;;;;3.10;1.60;;;;;;;23.82;50.78;97065.93;1661727;84;21095;-84
2022/08/11 13:18:30;;;;;;;2.58;1.37;;;;;;;24.09;49.20;97060.64;1681569;84;21064;-84
2022/08/11 13:20:56;;;;;;;2.70;1.30;;;;;;;24.35;48.16;97061.16;1688143;84;21098;-84
2022/08/11 13:23:24;;;;;;;1.17;1.05;;;;;;;24.48;49.25;97067.38;1666978;86;21465;-83
2022/08/11 13:25:51;;;;;;;1.98;1.20;;;;;;;24.28;47.58;97071.17;1667203;86;21009;-85
2022/08/11 13:28:18;;;;;;;4.80;1.72;;;;;;;23.93;49.04;97084.38;1662687;85;21497;-84
2022/08/11 13:33:28;;;;;;;6.20;3.17;;;;;;;22.89;50.32;97103.41;1668937;86;21013;-84
2022/08/11 13:35:54;;;;;;;4.45;2.33;;;;;;;22.32;51.95;97122.86;1669005;85;21044;-84
2022/08/11 13:38:21;;;;;;;4.22;2.30;;;;;;;21.92;53.43;97123.39;1628085;87;20992;-84
2022/08/11 13:40:48;;;;;;;4.45;2.02;;;;;;;21.51;53.82;97140.58;1599405;87;21610;-84
2022/08/11 13:43:14;;;;;;;1.72;1.12;;;;;;;21.04;55.45;97134.48;1651749;84;21117;-84
2022/08/11 13:45:42;;;;;;;3.00;1.70;;;;;;;20.66;55.31;97126.97;1672797;84;21069;-84
2022/08/11 13:48:08;;;;;;;2.20;1.20;;;;;;;20.38;56.83;97125.75;1680932;84;21003;-84
2022/08/11 13:53:22;;;;;;;2.72;1.40;;;;;;;20.04;59.73;97105.33;1675816;84;21069;-84
2022/08/11 13:55:47;;;;;;;2.20;1.02;;;;;;;19.94;59.42;97099.78;1673013;84;21108;-84
2022/08/11 13:58:13;;;;;;;2.47;1.50;;;;;;;19.87;60.48;97096.44;1675897;84;21136;-85
2022/08/11 14:00:40;;;;;;;3.22;1.35;;;;;;;19.83;61.37;97096.56;1682488;84;21490;-84
2022/08/11 14:03:10;;;;;;;3.95;1.15;;;;;;;19.82;62.37;97094.44;1682970;84;21366;-83
2022/08/11 14:05:39;;;;;;;1.87;0.98;;;;;;;19.86;63.29;97090.36;1675977;84;21034;-84
2022/08/11 14:08:16;;;;;;;2.15;1.20;;;;;;;19.99;63.78;97090.67;1680438;84;21047;-84
2022/08/11 14:10:42;;;;;;;1.98;1.52;;;;;;;20.13;63.85;97082.87;1678790;84;21047;-84
2022/08/11 14:16:03;;;;;;;2.85;1.30;;;;;;;20.46;63.67;97071.04;1678936;84;21082;-85
2022/08/11 14:18:31;;;;;;;1.77;1.00;;;;;;;20.93;63.76;97065.27;1665626;85;21023;-84
2022/08/11 14:23:49;;;;;;;2.35;0.95;;;;;;;21.65;63.39;97062.31;1666804;84;21027;-84
2022/08/11 14:26:23;;;;;;;1.40;0.88;;;;;;;21.86;60.40;97058.48;1673672;84;21113;-84
2022/08/11 14:28:52;;;;;;;2.58;0.72;;;;;;;22.07;60.60;97064.17;1676988;84;20968;-85
2022/08/11 14:31:17;;;;;;;2.40;0.80;;;;;;;22.24;58.28;97074.78;1662771;85;21031;-85
2022/08/11 14:33:43;;;;;;;2.67;0.88;;;;;;;22.06;59.79;97103.58;1651044;85;21525;-85
2022/08/11 14:36:10;;;;;;;2.15;1.22;;;;;;;21.88;58.48;97104.02;1657961;84;21036;-84
2022/08/11 14:38:36;;;;;;;2.87;1.10;;;;;;;21.61;56.39;97113.53;1657938;85;21008;-84
2022/08/11 14:49:04;;;;;;;1.92;0.82;;;;;;;20.61;57.54;97119.73;1681401;84;21019;-84
2022/08/11 14:51:29;;;;;;;3.47;0.93;;;;;;;20.32;56.46;97108.67;1676288;84;21030;-85
2022/08/11 14:56:34;;;;;;;4.35;1.47;;;;;;;20.09;58.20;97126.56;1675794;84;21080;-84
2022/08/11 14:56:36;;;;;;;4.08;1.15;;;;;;;19.97;58.98;97122.55;1674531;84;21000;-84
2022/08/11 14:59:01;;;;;;;2.85;1.80;;;;;;;19.75;59.10;97132.77;1679793;84;20974;-84
2022/08/11 15:04:11;;;;;;;2.50;1.10;;;;;;;19.23;61.02;97130.70;1672051;84;21032;-84
2022/08/11 15:06:38;;;;;;;2.17;1.15;;;;;;;18.97;62.45;97128.59;1673180;85;21076;-84
2022/08/11 15:09:05;;;;;;;2.47;1.30;;;;;;;18.80;63.41;97124.38;1671191;84;21095;-84
2022/08/11 15:17:06;;;;;;;2.17;1.00;;;;;;;18.53;64.72;97121.62;1677028;84;20981;-83
2022/08/11 15:19:30;;;;;;;2.47;0.93;;;;;;;18.30;66.09;97122.19;1677512;84;21058;-83
2022/08/11 15:24:40;;;;;;;1.57;0.93;;;;;;;18.20;67.10;97121.33;1675813;84;21026;-83
2022/08/11 15:38:13;;;;;;;2.00;0.88;;;;;;;18.08;69.49;97094.11;1661173;84;21037;-83
2022/08/11 15:46:26;;;;;;;1.90;0.90;;;;;;;17.98;70.30;97086.67;1681967;84;21024;-83
2022/08/11 15:49:10;;;;;;;1.00;0.70;;;;;;;17.92;70.25;97082.77;1666944;85;21138;-83
2022/08/11 15:51:43;;;;;;;1.35;0.80;;;;;;;17.86;70.38;97079.66;1667276;85;21402;-83
2022/08/11 15:54:15;;;;;;;2.08;0.70;;;;;;;17.74;70.56;97076.91;1664887;85;21084;-83
2022/08/11 15:56:45;;;;;;;2.27;1.65;;;;;;;17.67;70.84;97080.02;1665139;85;21824;-83
2022/08/11 16:04:26;;;;;;;0.75;0.60;;;;;;;17.69;71.65;97079.34;1630954;85;21347;-82
2022/08/11 16:07:10;;;;;;;1.27;0.78;;;;;;;17.68;71.56;97084.30;1646420;85;20968;-82
2022/08/11 16:09:49;;;;;;;1.67;0.88;;;;;;;17.67;71.98;97082.14;1670348;85;21008;-82
2022/08/11 16:12:30;;;;;;;1.40;0.82;;;;;;;17.67;72.03;97076.08;1667883;85;20981;-83
2022/08/11 16:17:50;;;;;;;0.80;0.70;;;;;;;17.73;72.43;97074.45;1666423;85;21517;-83
2022/08/11 16:20:21;;;;;;;1.20;0.90;;;;;;;17.78;72.47;97076.77;1645056;86;21016;-83
2022/08/11 16:22:49;;;;;;;1.25;0.70;;;;;;;17.83;72.72;97078.26;1664906;85;21096;-82
2022/08/11 16:25:20;;;;;;;2.72;0.60;;;;;;;17.92;72.93;97083.58;1659557;85;21343;-82
2022/08/11 16:27:50;;;;;;;1.22;0.85;;;;;;;18.02;73.01;97078.36;1643098;85;21411;-82
2022/08/11 16:30:16;;;;;;;1.30;0.80;;;;;;;18.05;72.95;97084.50;1643348;85;20980;-82
2022/08/11 16:32:45;;;;;;;2.02;1.30;;;;;;;18.07;73.16;97084.61;1665877;85;21001;-82
2022/08/11 16:40:51;;;;;;;4.33;1.10;;;;;;;18.44;72.35;97080.30;1681754;84;21466;-82
2022/08/11 16:48:54;;;;;;;2.00;1.10;;;;;;;19.08;72.08;97081.80;1647636;87;21008;-82
2022/08/11 16:51:20;;;;;;;2.05;1.02;;;;;;;19.30;71.59;97077.41;1645982;86;21023;-83
2022/08/11 16:53:47;;;;;;;1.70;0.90;;;;;;;19.47;71.39;97084.50;1688967;84;21393;-82
2022/08/11 16:56:19;;;;;;;1.60;1.10;;;;;;;19.44;70.82;97080.99;1679070;84;21076;-82
2022/08/11 17:01:38;;;;;;;1.67;1.25;;;;;;;19.19;70.91;97078.93;1679850;84;21083;-82
2022/08/11 17:18:39;;;;;;;3.08;1.07;;;;;;;18.63;71.14;97067.20;1666847;85;20977;-84
2022/08/11 17:21:06;;;;;;;3.10;1.50;;;;;;;18.57;71.53;97066.23;1674503;84;21533;-84
2022/08/11 17:23:46;;;;;;;1.55;1.22;;;;;;;18.47;71.83;97065.91;1682836;84;21011;-84
2022/08/11 17:26:16;;;;;;;1.12;1.00;;;;;;;18.36;72.07;97067.91;1679895;84;21422;-84
2022/08/11 17:28:42;;;;;;;2.02;1.47;;;;;;;18.25;72.37;97064.97;1682625;84;21043;-85
2022/08/11 17:36:36;;;;;;;7.42;2.12;;;;;;;18.06;73.25;97064.59;1685668;84;21027;-85